sensor_id;sensor_type;location;lat;lon;timestamp;P1;durP1;ratioP1;P2;durP2;ratioP2
47866;SDS011;33628;50.806;11.586;2023-08-12T00:01:22;5.90;;;4.70;;
47866;SDS011;33628;50.806;11.586;2023-08-12T00:03:50;6.03;;;4.40;;
47866;SDS011;33628;50.806;11.586;2023-08-12T00:06:17;8.00;;;4.82;;
47866;SDS011;33628;50.806;11.586;2023-08-12T00:08:44;7.85;;;5.35;;
47866;SDS011;33628;50.806;11.586;2023-08-12T00:11:11;11.02;;;4.60;;
47866;SDS011;33628;50.806;11.586;2023-08-12T00:13:39;8.55;;;4.22;;
47866;SDS011;33628;50.806;11.586;2023-08-12T00:16:05;6.32;;;4.78;;
47866;SDS011;33628;50.806;11.586;2023-08-12T00:18:32;6.57;;;4.28;;
47866;SDS011;33628;50.806;11.586;2023-08-12T00:21:04;7.82;;;4.88;;
47866;SDS011;33628;50.806;11.586;2023-08-12T00:23:32;8.02;;;4.50;;
47866;SDS011;33628;50.806;11.586;2023-08-12T00:26:01;6.55;;;4.45;;
47866;SDS011;33628;50.806;11.586;2023-08-12T00:28:28;9.73;;;4.75;;
47866;SDS011;33628;50.806;11.586;2023-08-12T00:30:56;8.63;;;4.68;;
47866;SDS011;33628;50.806;11.586;2023-08-12T00:33:23;10.40;;;4.57;;
47866;SDS011;33628;50.806;11.586;2023-08-12T00:35:49;4.70;;;4.30;;
47866;SDS011;33628;50.806;11.586;2023-08-12T00:38:16;7.47;;;4.25;;
47866;SDS011;33628;50.806;11.586;2023-08-12T00:40:43;9.55;;;4.97;;
47866;SDS011;33628;50.806;11.586;2023-08-12T00:43:10;6.75;;;4.47;;
47866;SDS011;33628;50.806;11.586;2023-08-12T00:45:37;10.80;;;4.57;;
47866;SDS011;33628;50.806;11.586;2023-08-12T00:48:05;6.75;;;4.47;;
47866;SDS011;33628;50.806;11.586;2023-08-12T00:50:34;8.80;;;4.80;;
47866;SDS011;33628;50.806;11.586;2023-08-12T00:53:02;7.03;;;4.22;;
47866;SDS011;33628;50.806;11.586;2023-08-12T00:55:32;11.75;;;4.88;;
47866;SDS011;33628;50.806;11.586;2023-08-12T00:57:58;8.00;;;4.80;;
47866;SDS011;33628;50.806;11.586;2023-08-12T01:00:25;10.13;;;4.30;;
47866;SDS011;33628;50.806;11.586;2023-08-12T01:02:52;9.35;;;4.60;;
47866;SDS011;33628;50.806;11.586;2023-08-12T01:05:21;9.80;;;4.50;;
47866;SDS011;33628;50.806;11.586;2023-08-12T01:07:48;11.52;;;4.60;;
47866;SDS011;33628;50.806;11.586;2023-08-12T01:10:15;9.77;;;4.80;;
47866;SDS011;33628;50.806;11.586;2023-08-12T01:12:45;9.02;;;5.07;;
47866;SDS011;33628;50.806;11.586;2023-08-12T01:15:15;8.05;;;4.35;;
47866;SDS011;33628;50.806;11.586;2023-08-12T01:17:48;8.45;;;4.85;;
47866;SDS011;33628;50.806;11.586;2023-08-12T01:20:17;8.02;;;4.32;;
47866;SDS011;33628;50.806;11.586;2023-08-12T01:22:52;6.63;;;4.45;;
47866;SDS011;33628;50.806;11.586;2023-08-12T01:25:24;4.88;;;4.35;;
47866;SDS011;33628;50.806;11.586;2023-08-12T01:27:51;8.07;;;4.25;;
47866;SDS011;33628;50.806;11.586;2023-08-12T01:30:18;7.32;;;4.38;;
47866;SDS011;33628;50.806;11.586;2023-08-12T01:32:48;7.53;;;4.75;;
47866;SDS011;33628;50.806;11.586;2023-08-12T01:35:19;7.95;;;4.63;;
47866;SDS011;33628;50.806;11.586;2023-08-12T01:37:48;8.63;;;5.13;;
47866;SDS011;33628;50.806;11.586;2023-08-12T01:40:16;8.23;;;5.18;;
47866;SDS011;33628;50.806;11.586;2023-08-12T01:42:44;7.32;;;5.38;;
47866;SDS011;33628;50.806;11.586;2023-08-12T01:45:13;6.50;;;4.60;;
47866;SDS011;33628;50.806;11.586;2023-08-12T01:47:42;7.47;;;5.15;;
47866;SDS011;33628;50.806;11.586;2023-08-12T01:50:09;6.78;;;4.95;;
47866;SDS011;33628;50.806;11.586;2023-08-12T01:52:36;8.48;;;5.40;;
47866;SDS011;33628;50.806;11.586;2023-08-12T01:55:03;7.70;;;5.22;;
47866;SDS011;33628;50.806;11.586;2023-08-12T01:57:30;7.68;;;5.32;;
47866;SDS011;33628;50.806;11.586;2023-08-12T01:59:58;7.97;;;5.15;;
47866;SDS011;33628;50.806;11.586;2023-08-12T02:02:24;6.65;;;4.93;;
47866;SDS011;33628;50.806;11.586;2023-08-12T02:04:51;9.18;;;5.05;;
47866;SDS011;33628;50.806;11.586;2023-08-12T02:07:17;8.32;;;5.20;;
47866;SDS011;33628;50.806;11.586;2023-08-12T02:09:44;9.40;;;5.18;;
47866;SDS011;33628;50.806;11.586;2023-08-12T02:12:11;5.20;;;4.70;;
47866;SDS011;33628;50.806;11.586;2023-08-12T02:14:38;6.28;;;4.90;;
47866;SDS011;33628;50.806;11.586;2023-08-12T02:17:06;8.65;;;4.95;;
47866;SDS011;33628;50.806;11.586;2023-08-12T02:19:33;7.20;;;5.15;;
47866;SDS011;33628;50.806;11.586;2023-08-12T02:22:01;5.80;;;4.32;;
47866;SDS011;33628;50.806;11.586;2023-08-12T02:24:29;6.82;;;4.72;;
47866;SDS011;33628;50.806;11.586;2023-08-12T02:26:58;7.85;;;5.30;;
47866;SDS011;33628;50.806;11.586;2023-08-12T02:29:24;7.63;;;4.82;;
47866;SDS011;33628;50.806;11.586;2023-08-12T02:31:51;8.20;;;5.80;;
47866;SDS011;33628;50.806;11.586;2023-08-12T02:34:21;6.25;;;4.72;;
47866;SDS011;33628;50.806;11.586;2023-08-12T02:36:47;4.90;;;4.40;;
47866;SDS011;33628;50.806;11.586;2023-08-12T02:39:14;6.25;;;4.55;;
47866;SDS011;33628;50.806;11.586;2023-08-12T02:41:41;7.30;;;4.90;;
47866;SDS011;33628;50.806;11.586;2023-08-12T02:44:08;5.35;;;4.68;;
47866;SDS011;33628;50.806;11.586;2023-08-12T02:46:35;7.07;;;4.60;;
47866;SDS011;33628;50.806;11.586;2023-08-12T02:49:01;7.10;;;4.80;;
47866;SDS011;33628;50.806;11.586;2023-08-12T02:51:29;5.65;;;5.13;;
47866;SDS011;33628;50.806;11.586;2023-08-12T02:53:57;11.50;;;5.32;;
47866;SDS011;33628;50.806;11.586;2023-08-12T02:56:23;6.28;;;4.85;;
47866;SDS011;33628;50.806;11.586;2023-08-12T02:58:50;7.38;;;4.93;;
47866;SDS011;33628;50.806;11.586;2023-08-12T03:01:17;5.93;;;4.68;;
47866;SDS011;33628;50.806;11.586;2023-08-12T03:03:43;8.10;;;5.10;;
47866;SDS011;33628;50.806;11.586;2023-08-12T03:06:10;6.95;;;5.65;;
47866;SDS011;33628;50.806;11.586;2023-08-12T03:08:39;6.13;;;4.88;;
47866;SDS011;33628;50.806;11.586;2023-08-12T03:11:06;7.82;;;5.80;;
47866;SDS011;33628;50.806;11.586;2023-08-12T03:13:33;6.22;;;5.18;;
47866;SDS011;33628;50.806;11.586;2023-08-12T03:15:59;7.53;;;5.38;;
47866;SDS011;33628;50.806;11.586;2023-08-12T03:18:26;7.72;;;5.00;;
47866;SDS011;33628;50.806;11.586;2023-08-12T03:20:53;6.50;;;4.72;;
47866;SDS011;33628;50.806;11.586;2023-08-12T03:23:22;8.60;;;5.47;;
47866;SDS011;33628;50.806;11.586;2023-08-12T03:25:51;11.82;;;5.78;;
47866;SDS011;33628;50.806;11.586;2023-08-12T03:28:18;8.55;;;5.40;;
47866;SDS011;33628;50.806;11.586;2023-08-12T03:30:49;8.48;;;5.97;;
47866;SDS011;33628;50.806;11.586;2023-08-12T03:33:18;6.28;;;4.93;;
47866;SDS011;33628;50.806;11.586;2023-08-12T03:35:45;6.43;;;5.00;;
47866;SDS011;33628;50.806;11.586;2023-08-12T03:38:13;9.25;;;5.63;;
47866;SDS011;33628;50.806;11.586;2023-08-12T03:40:40;6.07;;;5.25;;
47866;SDS011;33628;50.806;11.586;2023-08-12T03:43:11;8.32;;;5.43;;
47866;SDS011;33628;50.806;11.586;2023-08-12T03:45:40;8.10;;;5.25;;
47866;SDS011;33628;50.806;11.586;2023-08-12T03:48:08;6.43;;;5.13;;
47866;SDS011;33628;50.806;11.586;2023-08-12T03:50:35;8.43;;;5.53;;
47866;SDS011;33628;50.806;11.586;2023-08-12T03:53:03;7.53;;;5.35;;
47866;SDS011;33628;50.806;11.586;2023-08-12T03:55:30;7.97;;;5.30;;
47866;SDS011;33628;50.806;11.586;2023-08-12T03:57:58;9.38;;;5.47;;
47866;SDS011;33628;50.806;11.586;2023-08-12T04:00:26;10.50;;;6.25;;
47866;SDS011;33628;50.806;11.586;2023-08-12T04:02:58;8.07;;;6.07;;
47866;SDS011;33628;50.806;11.586;2023-08-12T04:05:24;6.95;;;5.93;;
47866;SDS011;33628;50.806;11.586;2023-08-12T04:07:51;8.95;;;5.50;;
47866;SDS011;33628;50.806;11.586;2023-08-12T04:10:18;15.23;;;5.95;;
47866;SDS011;33628;50.806;11.586;2023-08-12T04:12:44;9.63;;;5.95;;
47866;SDS011;33628;50.806;11.586;2023-08-12T04:15:11;7.47;;;5.90;;
47866;SDS011;33628;50.806;11.586;2023-08-12T04:17:39;7.30;;;5.88;;
47866;SDS011;33628;50.806;11.586;2023-08-12T04:20:07;9.80;;;5.60;;
47866;SDS011;33628;50.806;11.586;2023-08-12T04:22:35;7.45;;;5.50;;
47866;SDS011;33628;50.806;11.586;2023-08-12T04:25:03;9.23;;;5.65;;
47866;SDS011;33628;50.806;11.586;2023-08-12T04:27:30;7.47;;;5.40;;
47866;SDS011;33628;50.806;11.586;2023-08-12T04:29:59;8.38;;;5.35;;
47866;SDS011;33628;50.806;11.586;2023-08-12T04:32:27;11.45;;;5.63;;
47866;SDS011;33628;50.806;11.586;2023-08-12T04:34:55;6.45;;;5.50;;
47866;SDS011;33628;50.806;11.586;2023-08-12T04:37:23;9.32;;;5.63;;
47866;SDS011;33628;50.806;11.586;2023-08-12T04:39:51;9.07;;;5.55;;
47866;SDS011;33628;50.806;11.586;2023-08-12T04:42:18;11.88;;;5.72;;
47866;SDS011;33628;50.806;11.586;2023-08-12T04:44:46;9.98;;;5.53;;
47866;SDS011;33628;50.806;11.586;2023-08-12T04:47:13;7.55;;;5.40;;
47866;SDS011;33628;50.806;11.586;2023-08-12T04:49:40;10.63;;;5.93;;
47866;SDS011;33628;50.806;11.586;2023-08-12T04:52:08;9.23;;;5.72;;
47866;SDS011;33628;50.806;11.586;2023-08-12T04:54:36;9.32;;;5.93;;
47866;SDS011;33628;50.806;11.586;2023-08-12T04:57:02;6.00;;;5.40;;
47866;SDS011;33628;50.806;11.586;2023-08-12T04:59:29;7.68;;;5.65;;
47866;SDS011;33628;50.806;11.586;2023-08-12T05:01:56;7.38;;;5.32;;
47866;SDS011;33628;50.806;11.586;2023-08-12T05:04:23;8.20;;;5.45;;
47866;SDS011;33628;50.806;11.586;2023-08-12T05:06:50;8.70;;;5.72;;
47866;SDS011;33628;50.806;11.586;2023-08-12T05:09:18;8.75;;;5.25;;
47866;SDS011;33628;50.806;11.586;2023-08-12T05:11:45;8.30;;;5.10;;
47866;SDS011;33628;50.806;11.586;2023-08-12T05:14:12;8.63;;;6.25;;
47866;SDS011;33628;50.806;11.586;2023-08-12T05:16:38;6.28;;;5.35;;
47866;SDS011;33628;50.806;11.586;2023-08-12T05:19:05;8.93;;;5.50;;
47866;SDS011;33628;50.806;11.586;2023-08-12T05:21:32;9.98;;;5.82;;
47866;SDS011;33628;50.806;11.586;2023-08-12T05:23:59;9.73;;;5.35;;
47866;SDS011;33628;50.806;11.586;2023-08-12T05:26:27;7.50;;;6.15;;
47866;SDS011;33628;50.806;11.586;2023-08-12T05:28:54;6.13;;;5.53;;
47866;SDS011;33628;50.806;11.586;2023-08-12T05:31:20;8.18;;;5.40;;
47866;SDS011;33628;50.806;11.586;2023-08-12T05:33:47;7.53;;;5.55;;
47866;SDS011;33628;50.806;11.586;2023-08-12T05:36:17;8.95;;;5.50;;
47866;SDS011;33628;50.806;11.586;2023-08-12T05:38:43;7.20;;;6.20;;
47866;SDS011;33628;50.806;11.586;2023-08-12T05:41:10;8.70;;;5.70;;
47866;SDS011;33628;50.806;11.586;2023-08-12T05:43:38;12.07;;;5.90;;
47866;SDS011;33628;50.806;11.586;2023-08-12T05:46:05;6.63;;;6.03;;
47866;SDS011;33628;50.806;11.586;2023-08-12T05:48:31;9.75;;;6.13;;
47866;SDS011;33628;50.806;11.586;2023-08-12T05:50:58;8.23;;;6.40;;
47866;SDS011;33628;50.806;11.586;2023-08-12T05:53:25;10.77;;;6.00;;
47866;SDS011;33628;50.806;11.586;2023-08-12T05:55:51;10.23;;;6.15;;
47866;SDS011;33628;50.806;11.586;2023-08-12T05:58:18;9.48;;;6.50;;
47866;SDS011;33628;50.806;11.586;2023-08-12T06:00:47;7.68;;;6.50;;
47866;SDS011;33628;50.806;11.586;2023-08-12T06:03:14;7.38;;;6.45;;
47866;SDS011;33628;50.806;11.586;2023-08-12T06:05:40;8.90;;;6.40;;
47866;SDS011;33628;50.806;11.586;2023-08-12T06:08:07;9.23;;;6.40;;
47866;SDS011;33628;50.806;11.586;2023-08-12T06:10:34;9.18;;;5.90;;
47866;SDS011;33628;50.806;11.586;2023-08-12T06:13:01;7.35;;;6.18;;
47866;SDS011;33628;50.806;11.586;2023-08-12T06:15:28;7.18;;;5.65;;
47866;SDS011;33628;50.806;11.586;2023-08-12T06:17:56;10.60;;;6.60;;
47866;SDS011;33628;50.806;11.586;2023-08-12T06:20:23;7.20;;;6.13;;
47866;SDS011;33628;50.806;11.586;2023-08-12T06:22:49;9.45;;;6.20;;
47866;SDS011;33628;50.806;11.586;2023-08-12T06:25:17;8.05;;;6.25;;
47866;SDS011;33628;50.806;11.586;2023-08-12T06:27:43;7.38;;;5.97;;
47866;SDS011;33628;50.806;11.586;2023-08-12T06:30:11;8.02;;;6.15;;
47866;SDS011;33628;50.806;11.586;2023-08-12T06:32:38;9.10;;;6.40;;
47866;SDS011;33628;50.806;11.586;2023-08-12T06:35:06;9.88;;;8.23;;
47866;SDS011;33628;50.806;11.586;2023-08-12T06:37:34;7.20;;;6.50;;
47866;SDS011;33628;50.806;11.586;2023-08-12T06:40:00;8.00;;;6.32;;
47866;SDS011;33628;50.806;11.586;2023-08-12T06:42:27;8.20;;;6.43;;
47866;SDS011;33628;50.806;11.586;2023-08-12T06:44:55;7.63;;;6.30;;
47866;SDS011;33628;50.806;11.586;2023-08-12T06:47:23;7.25;;;5.90;;
47866;SDS011;33628;50.806;11.586;2023-08-12T06:49:50;6.28;;;5.68;;
47866;SDS011;33628;50.806;11.586;2023-08-12T06:52:18;9.32;;;5.78;;
47866;SDS011;33628;50.806;11.586;2023-08-12T06:54:44;6.78;;;6.05;;
47866;SDS011;33628;50.806;11.586;2023-08-12T06:57:11;10.35;;;6.57;;
47866;SDS011;33628;50.806;11.586;2023-08-12T06:59:38;8.43;;;6.30;;
47866;SDS011;33628;50.806;11.586;2023-08-12T07:02:06;7.68;;;5.97;;
47866;SDS011;33628;50.806;11.586;2023-08-12T07:04:33;6.65;;;5.93;;
47866;SDS011;33628;50.806;11.586;2023-08-12T07:06:59;8.25;;;5.78;;
47866;SDS011;33628;50.806;11.586;2023-08-12T07:09:27;8.77;;;6.57;;
47866;SDS011;33628;50.806;11.586;2023-08-12T07:11:54;8.80;;;6.30;;
47866;SDS011;33628;50.806;11.586;2023-08-12T07:14:21;11.50;;;7.20;;
47866;SDS011;33628;50.806;11.586;2023-08-12T07:16:48;12.52;;;8.15;;
47866;SDS011;33628;50.806;11.586;2023-08-12T07:19:14;8.90;;;7.82;;
47866;SDS011;33628;50.806;11.586;2023-08-12T07:21:41;10.38;;;7.72;;
47866;SDS011;33628;50.806;11.586;2023-08-12T07:24:07;9.95;;;7.95;;
47866;SDS011;33628;50.806;11.586;2023-08-12T07:26:35;7.97;;;6.35;;
47866;SDS011;33628;50.806;11.586;2023-08-12T07:29:02;8.90;;;7.00;;
47866;SDS011;33628;50.806;11.586;2023-08-12T07:31:29;8.40;;;7.60;;
47866;SDS011;33628;50.806;11.586;2023-08-12T07:33:56;10.52;;;7.70;;
47866;SDS011;33628;50.806;11.586;2023-08-12T07:36:22;8.73;;;7.50;;
47866;SDS011;33628;50.806;11.586;2023-08-12T07:38:49;10.45;;;7.03;;
47866;SDS011;33628;50.806;11.586;2023-08-12T07:41:16;13.00;;;7.60;;
47866;SDS011;33628;50.806;11.586;2023-08-12T07:43:44;12.55;;;8.25;;
47866;SDS011;33628;50.806;11.586;2023-08-12T07:46:10;12.02;;;6.80;;
47866;SDS011;33628;50.806;11.586;2023-08-12T07:48:37;7.80;;;7.10;;
47866;SDS011;33628;50.806;11.586;2023-08-12T07:51:04;10.93;;;7.00;;
47866;SDS011;33628;50.806;11.586;2023-08-12T07:53:30;10.93;;;7.40;;
47866;SDS011;33628;50.806;11.586;2023-08-12T07:55:57;9.80;;;6.78;;
47866;SDS011;33628;50.806;11.586;2023-08-12T07:58:24;11.82;;;6.43;;
47866;SDS011;33628;50.806;11.586;2023-08-12T08:00:53;7.55;;;6.32;;
47866;SDS011;33628;50.806;11.586;2023-08-12T08:03:20;7.00;;;6.30;;
47866;SDS011;33628;50.806;11.586;2023-08-12T08:05:47;6.82;;;5.82;;
47866;SDS011;33628;50.806;11.586;2023-08-12T08:08:14;7.03;;;6.00;;
47866;SDS011;33628;50.806;11.586;2023-08-12T08:10:40;7.28;;;6.57;;
47866;SDS011;33628;50.806;11.586;2023-08-12T08:13:07;9.30;;;6.95;;
47866;SDS011;33628;50.806;11.586;2023-08-12T08:15:34;7.72;;;6.88;;
47866;SDS011;33628;50.806;11.586;2023-08-12T08:18:02;10.90;;;6.35;;
47866;SDS011;33628;50.806;11.586;2023-08-12T08:20:32;8.05;;;6.90;;
47866;SDS011;33628;50.806;11.586;2023-08-12T08:22:59;9.73;;;7.60;;
47866;SDS011;33628;50.806;11.586;2023-08-12T08:25:25;10.05;;;7.10;;
47866;SDS011;33628;50.806;11.586;2023-08-12T08:27:52;8.88;;;6.22;;
47866;SDS011;33628;50.806;11.586;2023-08-12T08:30:19;11.15;;;6.70;;
47866;SDS011;33628;50.806;11.586;2023-08-12T08:32:46;8.73;;;6.28;;
47866;SDS011;33628;50.806;11.586;2023-08-12T08:35:14;7.30;;;6.28;;
47866;SDS011;33628;50.806;11.586;2023-08-12T08:37:41;11.35;;;7.05;;
47866;SDS011;33628;50.806;11.586;2023-08-12T08:40:10;9.00;;;6.68;;
47866;SDS011;33628;50.806;11.586;2023-08-12T08:42:37;8.85;;;7.18;;
47866;SDS011;33628;50.806;11.586;2023-08-12T08:45:04;7.10;;;5.97;;
47866;SDS011;33628;50.806;11.586;2023-08-12T08:47:35;11.20;;;7.30;;
47866;SDS011;33628;50.806;11.586;2023-08-12T08:50:02;10.05;;;7.53;;
47866;SDS011;33628;50.806;11.586;2023-08-12T08:52:31;8.23;;;7.25;;
47866;SDS011;33628;50.806;11.586;2023-08-12T08:54:58;13.00;;;7.97;;
47866;SDS011;33628;50.806;11.586;2023-08-12T08:57:27;8.73;;;7.07;;
47866;SDS011;33628;50.806;11.586;2023-08-12T08:59:54;11.32;;;7.18;;
47866;SDS011;33628;50.806;11.586;2023-08-12T09:02:21;11.65;;;7.32;;
47866;SDS011;33628;50.806;11.586;2023-08-12T09:04:48;9.95;;;6.97;;
47866;SDS011;33628;50.806;11.586;2023-08-12T09:07:16;7.75;;;7.00;;
47866;SDS011;33628;50.806;11.586;2023-08-12T09:09:46;11.38;;;7.30;;
47866;SDS011;33628;50.806;11.586;2023-08-12T09:12:16;8.20;;;7.32;;
47866;SDS011;33628;50.806;11.586;2023-08-12T09:14:43;11.07;;;8.10;;
47866;SDS011;33628;50.806;11.586;2023-08-12T09:17:09;7.95;;;7.00;;
47866;SDS011;33628;50.806;11.586;2023-08-12T09:19:36;7.85;;;7.07;;
47866;SDS011;33628;50.806;11.586;2023-08-12T09:22:03;8.73;;;7.18;;
47866;SDS011;33628;50.806;11.586;2023-08-12T09:24:31;10.10;;;8.50;;
47866;SDS011;33628;50.806;11.586;2023-08-12T09:26:59;10.32;;;8.15;;
47866;SDS011;33628;50.806;11.586;2023-08-12T09:29:29;12.52;;;9.73;;
47866;SDS011;33628;50.806;11.586;2023-08-12T09:32:05;10.85;;;9.77;;
47866;SDS011;33628;50.806;11.586;2023-08-12T09:34:33;14.45;;;11.95;;
47866;SDS011;33628;50.806;11.586;2023-08-12T09:36:59;16.58;;;12.13;;
47866;SDS011;33628;50.806;11.586;2023-08-12T09:39:26;15.90;;;12.40;;
47866;SDS011;33628;50.806;11.586;2023-08-12T09:41:55;14.73;;;13.23;;
47866;SDS011;33628;50.806;11.586;2023-08-12T09:44:24;13.30;;;11.93;;
47866;SDS011;33628;50.806;11.586;2023-08-12T09:46:55;15.45;;;11.50;;
47866;SDS011;33628;50.806;11.586;2023-08-12T09:49:23;11.95;;;10.30;;
47866;SDS011;33628;50.806;11.586;2023-08-12T09:51:51;8.40;;;7.53;;
47866;SDS011;33628;50.806;11.586;2023-08-12T09:54:19;9.70;;;8.70;;
47866;SDS011;33628;50.806;11.586;2023-08-12T09:56:47;9.48;;;8.48;;
47866;SDS011;33628;50.806;11.586;2023-08-12T09:59:14;10.90;;;9.40;;
47866;SDS011;33628;50.806;11.586;2023-08-12T10:01:50;10.55;;;9.45;;
47866;SDS011;33628;50.806;11.586;2023-08-12T10:04:17;12.15;;;9.75;;
47866;SDS011;33628;50.806;11.586;2023-08-12T10:06:44;32.42;;;29.00;;
47866;SDS011;33628;50.806;11.586;2023-08-12T10:09:11;12.65;;;11.30;;
47866;SDS011;33628;50.806;11.586;2023-08-12T10:11:38;17.67;;;13.93;;
47866;SDS011;33628;50.806;11.586;2023-08-12T10:14:05;15.80;;;9.57;;
47866;SDS011;33628;50.806;11.586;2023-08-12T10:16:32;9.45;;;7.75;;
47866;SDS011;33628;50.806;11.586;2023-08-12T10:19:00;9.20;;;7.72;;
47866;SDS011;33628;50.806;11.586;2023-08-12T10:21:28;9.32;;;7.60;;
47866;SDS011;33628;50.806;11.586;2023-08-12T10:23:55;13.32;;;8.98;;
47866;SDS011;33628;50.806;11.586;2023-08-12T10:26:23;9.43;;;8.43;;
47866;SDS011;33628;50.806;11.586;2023-08-12T10:28:50;11.18;;;8.65;;
47866;SDS011;33628;50.806;11.586;2023-08-12T10:31:17;10.57;;;8.43;;
47866;SDS011;33628;50.806;11.586;2023-08-12T10:33:44;10.63;;;8.05;;
47866;SDS011;33628;50.806;11.586;2023-08-12T10:36:16;10.02;;;8.82;;
47866;SDS011;33628;50.806;11.586;2023-08-12T10:38:46;8.77;;;7.90;;
47866;SDS011;33628;50.806;11.586;2023-08-12T10:41:16;10.07;;;7.65;;
47866;SDS011;33628;50.806;11.586;2023-08-12T10:43:56;7.75;;;6.90;;
47866;SDS011;33628;50.806;11.586;2023-08-12T10:46:28;9.20;;;5.25;;
47866;SDS011;33628;50.806;11.586;2023-08-12T10:48:56;7.22;;;6.07;;
47866;SDS011;33628;50.806;11.586;2023-08-12T10:51:43;6.60;;;5.78;;
47866;SDS011;33628;50.806;11.586;2023-08-12T10:54:15;6.57;;;5.00;;
47866;SDS011;33628;50.806;11.586;2023-08-12T10:59:53;5.13;;;4.53;;
47866;SDS011;33628;50.806;11.586;2023-08-12T11:02:21;5.10;;;4.13;;
47866;SDS011;33628;50.806;11.586;2023-08-12T11:04:52;3.97;;;3.55;;
47866;SDS011;33628;50.806;11.586;2023-08-12T11:07:19;5.03;;;3.40;;
47866;SDS011;33628;50.806;11.586;2023-08-12T11:09:50;4.30;;;3.40;;
47866;SDS011;33628;50.806;11.586;2023-08-12T11:12:29;9.45;;;4.00;;
47866;SDS011;33628;50.806;11.586;2023-08-12T11:14:58;5.70;;;3.63;;
47866;SDS011;33628;50.806;11.586;2023-08-12T11:17:30;3.58;;;3.10;;
47866;SDS011;33628;50.806;11.586;2023-08-12T11:19:59;4.28;;;3.13;;
47866;SDS011;33628;50.806;11.586;2023-08-12T11:22:26;4.78;;;3.05;;
47866;SDS011;33628;50.806;11.586;2023-08-12T11:24:53;4.97;;;3.30;;
47866;SDS011;33628;50.806;11.586;2023-08-12T11:27:20;3.50;;;2.80;;
47866;SDS011;33628;50.806;11.586;2023-08-12T11:29:48;5.05;;;2.88;;
47866;SDS011;33628;50.806;11.586;2023-08-12T11:32:17;3.33;;;2.35;;
47866;SDS011;33628;50.806;11.586;2023-08-12T11:34:44;2.53;;;2.28;;
47866;SDS011;33628;50.806;11.586;2023-08-12T11:37:11;2.60;;;2.08;;
47866;SDS011;33628;50.806;11.586;2023-08-12T11:39:37;4.03;;;3.22;;
47866;SDS011;33628;50.806;11.586;2023-08-12T11:42:08;2.40;;;2.20;;
47866;SDS011;33628;50.806;11.586;2023-08-12T11:44:34;3.63;;;1.75;;
47866;SDS011;33628;50.806;11.586;2023-08-12T11:47:01;3.03;;;1.85;;
47866;SDS011;33628;50.806;11.586;2023-08-12T11:49:29;3.72;;;2.40;;
47866;SDS011;33628;50.806;11.586;2023-08-12T11:51:55;2.50;;;1.95;;
47866;SDS011;33628;50.806;11.586;2023-08-12T11:54:22;3.08;;;1.70;;
47866;SDS011;33628;50.806;11.586;2023-08-12T11:56:49;3.08;;;1.80;;
47866;SDS011;33628;50.806;11.586;2023-08-12T11:59:15;2.90;;;1.95;;
47866;SDS011;33628;50.806;11.586;2023-08-12T12:01:45;3.35;;;1.88;;
47866;SDS011;33628;50.806;11.586;2023-08-12T12:04:14;2.10;;;1.90;;
47866;SDS011;33628;50.806;11.586;2023-08-12T12:06:43;4.45;;;2.20;;
47866;SDS011;33628;50.806;11.586;2023-08-12T12:09:10;4.03;;;2.28;;
47866;SDS011;33628;50.806;11.586;2023-08-12T12:11:37;3.55;;;1.98;;
47866;SDS011;33628;50.806;11.586;2023-08-12T12:14:04;2.42;;;2.03;;
47866;SDS011;33628;50.806;11.586;2023-08-12T12:16:38;2.80;;;1.90;;
47866;SDS011;33628;50.806;11.586;2023-08-12T12:19:09;2.53;;;2.20;;
47866;SDS011;33628;50.806;11.586;2023-08-12T12:21:38;3.63;;;2.30;;
47866;SDS011;33628;50.806;11.586;2023-08-12T12:24:07;2.45;;;2.00;;
47866;SDS011;33628;50.806;11.586;2023-08-12T12:26:34;2.80;;;2.10;;
47866;SDS011;33628;50.806;11.586;2023-08-12T12:29:02;2.55;;;1.98;;
47866;SDS011;33628;50.806;11.586;2023-08-12T12:31:29;5.63;;;2.22;;
47866;SDS011;33628;50.806;11.586;2023-08-12T12:33:57;2.33;;;1.98;;
47866;SDS011;33628;50.806;11.586;2023-08-12T12:36:23;2.03;;;1.83;;
47866;SDS011;33628;50.806;11.586;2023-08-12T12:38:50;2.25;;;2.05;;
47866;SDS011;33628;50.806;11.586;2023-08-12T12:41:18;3.50;;;2.10;;
47866;SDS011;33628;50.806;11.586;2023-08-12T12:43:45;3.58;;;2.35;;
47866;SDS011;33628;50.806;11.586;2023-08-12T12:46:11;3.17;;;2.50;;
47866;SDS011;33628;50.806;11.586;2023-08-12T12:48:38;6.32;;;2.30;;
47866;SDS011;33628;50.806;11.586;2023-08-12T12:51:06;4.68;;;2.35;;
47866;SDS011;33628;50.806;11.586;2023-08-12T12:53:33;3.60;;;2.33;;
47866;SDS011;33628;50.806;11.586;2023-08-12T12:56:00;5.47;;;2.97;;
47866;SDS011;33628;50.806;11.586;2023-08-12T12:58:31;4.80;;;2.60;;
47866;SDS011;33628;50.806;11.586;2023-08-12T13:00:59;4.72;;;2.28;;
47866;SDS011;33628;50.806;11.586;2023-08-12T13:03:26;4.50;;;2.60;;
47866;SDS011;33628;50.806;11.586;2023-08-12T13:05:52;3.30;;;2.63;;
47866;SDS011;33628;50.806;11.586;2023-08-12T13:08:20;2.65;;;2.22;;
47866;SDS011;33628;50.806;11.586;2023-08-12T13:10:47;2.97;;;2.38;;
47866;SDS011;33628;50.806;11.586;2023-08-12T13:13:14;4.45;;;2.67;;
47866;SDS011;33628;50.806;11.586;2023-08-12T13:15:43;5.00;;;2.80;;
47866;SDS011;33628;50.806;11.586;2023-08-12T13:18:10;4.95;;;2.78;;
47866;SDS011;33628;50.806;11.586;2023-08-12T13:20:37;4.30;;;2.17;;
47866;SDS011;33628;50.806;11.586;2023-08-12T13:23:04;3.53;;;2.45;;
47866;SDS011;33628;50.806;11.586;2023-08-12T13:25:31;6.10;;;2.65;;
47866;SDS011;33628;50.806;11.586;2023-08-12T13:28:01;3.75;;;2.63;;
47866;SDS011;33628;50.806;11.586;2023-08-12T13:30:28;3.00;;;2.58;;
47866;SDS011;33628;50.806;11.586;2023-08-12T13:32:57;3.90;;;2.30;;
47866;SDS011;33628;50.806;11.586;2023-08-12T13:35:23;4.10;;;2.45;;
47866;SDS011;33628;50.806;11.586;2023-08-12T13:37:50;4.30;;;3.20;;
47866;SDS011;33628;50.806;11.586;2023-08-12T13:40:17;5.65;;;3.20;;
47866;SDS011;33628;50.806;11.586;2023-08-12T13:42:44;2.97;;;2.42;;
47866;SDS011;33628;50.806;11.586;2023-08-12T13:45:12;3.75;;;2.33;;
47866;SDS011;33628;50.806;11.586;2023-08-12T13:47:38;3.78;;;2.55;;
47866;SDS011;33628;50.806;11.586;2023-08-12T13:50:07;5.65;;;2.65;;
47866;SDS011;33628;50.806;11.586;2023-08-12T13:52:34;4.68;;;2.63;;
47866;SDS011;33628;50.806;11.586;2023-08-12T13:55:01;2.95;;;2.30;;
47866;SDS011;33628;50.806;11.586;2023-08-12T13:57:29;5.78;;;2.55;;
47866;SDS011;33628;50.806;11.586;2023-08-12T13:59:57;4.57;;;2.63;;
47866;SDS011;33628;50.806;11.586;2023-08-12T14:02:26;3.47;;;2.60;;
47866;SDS011;33628;50.806;11.586;2023-08-12T14:04:53;9.48;;;3.00;;
47866;SDS011;33628;50.806;11.586;2023-08-12T14:07:21;4.32;;;2.20;;
47866;SDS011;33628;50.806;11.586;2023-08-12T14:09:47;3.22;;;2.72;;
47866;SDS011;33628;50.806;11.586;2023-08-12T14:12:14;3.95;;;2.60;;
47866;SDS011;33628;50.806;11.586;2023-08-12T14:14:40;6.07;;;3.05;;
47866;SDS011;33628;50.806;11.586;2023-08-12T14:17:07;4.53;;;2.75;;
47866;SDS011;33628;50.806;11.586;2023-08-12T14:19:34;7.05;;;3.08;;
47866;SDS011;33628;50.806;11.586;2023-08-12T14:22:00;5.93;;;3.78;;
47866;SDS011;33628;50.806;11.586;2023-08-12T14:24:28;6.82;;;3.33;;
47866;SDS011;33628;50.806;11.586;2023-08-12T14:26:55;4.10;;;2.83;;
47866;SDS011;33628;50.806;11.586;2023-08-12T14:29:21;5.90;;;2.70;;
47866;SDS011;33628;50.806;11.586;2023-08-12T14:31:49;3.45;;;3.10;;
47866;SDS011;33628;50.806;11.586;2023-08-12T14:34:16;5.13;;;2.65;;
47866;SDS011;33628;50.806;11.586;2023-08-12T14:36:43;4.55;;;2.92;;